createdAt,value
2023-01-26T00:01:19.931Z,101170.25
2023-01-26T00:03:46.926Z,101159.00
2023-01-26T00:06:16.131Z,101167.22
2023-01-26T00:08:45.257Z,101167.44
2023-01-26T00:11:14.584Z,101169.16
2023-01-26T00:13:41.535Z,101159.34
2023-01-26T00:16:11.397Z,101154.00
2023-01-26T00:18:39.405Z,101154.03
2023-01-26T00:21:07.909Z,101159.28
2023-01-26T00:23:35.803Z,101153.94
2023-01-26T00:26:02.923Z,101152.22
2023-01-26T00:28:29.502Z,101150.41
2023-01-26T00:31:06.929Z,101153.06
2023-01-26T00:33:33.735Z,101143.47
2023-01-26T00:36:00.409Z,101151.53
2023-01-26T00:38:28.488Z,101150.53
2023-01-26T00:40:55.335Z,101154.09
2023-01-26T00:43:22.051Z,101154.09
2023-01-26T00:45:48.670Z,101154.09
2023-01-26T00:48:15.606Z,101143.47
2023-01-26T00:50:42.259Z,101147.00
2023-01-26T00:53:09.727Z,101140.78
2023-01-26T00:55:37.507Z,101137.22
2023-01-26T00:58:06.840Z,101139.00
2023-01-26T01:00:34.944Z,101133.75
2023-01-26T01:03:02.023Z,101131.91
2023-01-26T01:05:30.613Z,101127.47
2023-01-26T01:07:57.834Z,101133.72
2023-01-26T01:10:27.124Z,101131.91
2023-01-26T01:12:54.753Z,101133.72
2023-01-26T01:15:21.313Z,101128.69
2023-01-26T01:17:48.281Z,101126.97
2023-01-26T01:20:15.037Z,101123.38
2023-01-26T01:22:41.614Z,101125.00
2023-01-26T01:25:08.647Z,101123.28
2023-01-26T01:27:35.219Z,101116.19
2023-01-26T01:30:07.533Z,101118.81
2023-01-26T01:32:39.697Z,101113.66
2023-01-26T01:35:07.080Z,101104.78
2023-01-26T01:37:33.765Z,101105.69
2023-01-26T01:40:00.504Z,101109.19
2023-01-26T01:42:27.206Z,101111.84
2023-01-26T01:45:28.389Z,101105.69
2023-01-26T01:47:58.612Z,101104.03
2023-01-26T01:50:27.485Z,101098.78
2023-01-26T01:52:55.456Z,101104.13
2023-01-26T01:55:24.756Z,101099.09
2023-01-26T01:57:55.620Z,101104.50
2023-01-26T02:00:24.262Z,101095.59
2023-01-26T02:03:14.790Z,101086.03
2023-01-26T02:05:57.950Z,101087.69
2023-01-26T02:08:29.512Z,101080.63
2023-01-26T02:11:00.771Z,101077.06
2023-01-26T02:13:28.437Z,101076.13
2023-01-26T02:15:55.363Z,101071.63
2023-01-26T02:18:22.045Z,101073.28
2023-01-26T02:21:03.204Z,101065.28
2023-01-26T02:23:48.223Z,101066.97
2023-01-26T02:26:16.521Z,101061.59
2023-01-26T02:28:44.643Z,101059.84
2023-01-26T02:31:12.245Z,101058.06
2023-01-26T02:33:39.110Z,101051.84
2023-01-26T02:36:07.346Z,101043.78
2023-01-26T02:38:39.435Z,101040.25
2023-01-26T02:41:09.217Z,101038.44
2023-01-26T02:43:36.467Z,101031.38
2023-01-26T02:46:03.352Z,101034.91
2023-01-26T02:48:52.780Z,101027.84
2023-01-26T02:51:19.360Z,101023.38
2023-01-26T02:53:46.017Z,101025.03
2023-01-26T02:56:12.571Z,101016.16
2023-01-26T02:58:39.211Z,101013.50
2023-01-26T03:01:05.870Z,101019.69
2023-01-26T03:03:42.037Z,101009.13
2023-01-26T03:06:13.268Z,101013.56
2023-01-26T03:08:40.269Z,101002.22
2023-01-26T03:11:08.185Z,100998.72
2023-01-26T03:13:35.668Z,101004.88
2023-01-26T03:16:06.944Z,101005.78
2023-01-26T03:18:54.095Z,101004.03
2023-01-26T03:21:39.437Z,101003.88
2023-01-26T03:24:24.894Z,100997.66
2023-01-26T03:27:09.624Z,101002.06
2023-01-26T03:29:36.185Z,100987.97
2023-01-26T03:32:02.853Z,100989.84
2023-01-26T03:34:29.743Z,100987.97
2023-01-26T03:36:56.631Z,100978.19
2023-01-26T03:39:41.603Z,100970.16
2023-01-26T03:42:26.391Z,100980.69
2023-01-26T03:45:11.853Z,100979.84
2023-01-26T03:47:57.047Z,100973.78
2023-01-26T03:50:42.487Z,100978.19
2023-01-26T03:53:45.495Z,100969.31
2023-01-26T03:56:18.159Z,100968.38
2023-01-26T03:58:46.253Z,100964.94
2023-01-26T04:01:19.822Z,100968.44
2023-01-26T04:04:09.187Z,100961.34
2023-01-26T04:06:55.703Z,100957.81
2023-01-26T04:09:22.575Z,100960.63
2023-01-26T04:11:49.506Z,100956.16
2023-01-26T04:14:36.372Z,100958.75
2023-01-26T04:17:35.896Z,100956.06
2023-01-26T04:20:21.287Z,100956.09
2023-01-26T04:22:47.858Z,100944.63
2023-01-26T04:25:16.895Z,100947.28
2023-01-26T04:27:43.944Z,100941.19
2023-01-26T04:30:13.189Z,100940.25
2023-01-26T04:32:40.212Z,100941.22
2023-01-26T04:35:08.599Z,100937.75
2023-01-26T04:37:35.256Z,100940.38
2023-01-26T04:40:02.406Z,100931.56
2023-01-26T04:42:28.995Z,100934.16
2023-01-26T04:44:55.545Z,100935.03
2023-01-26T04:47:23.023Z,100935.88
2023-01-26T04:49:49.628Z,100926.19
2023-01-26T04:52:16.405Z,100927.19
2023-01-26T04:54:42.987Z,100923.59
2023-01-26T04:57:09.704Z,100921.00
2023-01-26T04:59:36.741Z,100928.06
2023-01-26T05:02:03.319Z,100927.91
2023-01-26T05:04:30.004Z,100926.19
2023-01-26T05:06:56.629Z,100932.38
2023-01-26T05:09:23.185Z,100933.22
2023-01-26T05:11:49.756Z,100931.38
2023-01-26T05:14:16.314Z,100928.72
2023-01-26T05:16:42.951Z,100926.16
2023-01-26T05:19:09.530Z,100923.50
2023-01-26T05:21:36.184Z,100926.16
2023-01-26T05:24:02.856Z,100926.25
2023-01-26T05:26:29.514Z,100925.41
2023-01-26T05:28:56.200Z,100928.13
2023-01-26T05:31:22.899Z,100924.53
2023-01-26T05:33:49.456Z,100930.72
2023-01-26T05:36:16.090Z,100926.25
2023-01-26T05:38:42.643Z,100928.13
2023-01-26T05:41:09.251Z,100928.97
2023-01-26T05:43:35.816Z,100928.06
2023-01-26T05:46:02.464Z,100927.97
2023-01-26T05:48:29.136Z,100938.66
2023-01-26T05:50:57.565Z,100938.66
2023-01-26T05:53:24.391Z,100938.66
2023-01-26T05:55:50.949Z,100939.50
2023-01-26T05:58:17.548Z,100936.84
2023-01-26T06:00:44.091Z,100937.78
2023-01-26T06:03:10.630Z,100942.16
2023-01-26T06:05:38.807Z,100943.97
2023-01-26T06:08:05.720Z,100935.88
2023-01-26T06:10:32.332Z,100933.97
2023-01-26T06:13:00.350Z,100929.53
2023-01-26T06:15:26.946Z,100933.22
2023-01-26T06:17:53.489Z,100941.06
2023-01-26T06:20:20.064Z,100934.09
2023-01-26T06:22:46.681Z,100929.78
2023-01-26T06:25:13.339Z,100933.41
2023-01-26T06:27:42.391Z,100937.91
2023-01-26T06:30:11.481Z,100940.56
2023-01-26T06:32:38.191Z,100934.41
2023-01-26T06:35:06.641Z,100939.75
2023-01-26T06:37:33.610Z,100933.63
2023-01-26T06:40:00.215Z,100931.75
2023-01-26T06:42:26.819Z,100929.03
2023-01-26T06:44:53.396Z,100932.59
2023-01-26T06:47:19.944Z,100930.03
2023-01-26T06:49:46.555Z,100928.13
2023-01-26T06:52:28.221Z,100921.94
2023-01-26T06:54:57.495Z,100925.47
2023-01-26T06:57:24.060Z,100921.88
2023-01-26T06:59:50.686Z,100922.66
2023-01-26T07:02:22.142Z,100926.16
2023-01-26T07:04:49.945Z,100920.75
2023-01-26T07:07:16.921Z,100921.63
2023-01-26T07:09:43.556Z,100924.28
2023-01-26T07:12:10.182Z,100919.84
2023-01-26T07:14:36.758Z,100918.06
2023-01-26T07:17:04.069Z,100910.03
2023-01-26T07:19:33.156Z,100909.06
2023-01-26T07:22:00.759Z,100909.94
2023-01-26T07:24:27.696Z,100908.13
2023-01-26T07:26:54.706Z,100913.38
2023-01-26T07:29:22.005Z,100911.50
2023-01-26T07:31:48.730Z,100908.84
2023-01-26T07:34:15.326Z,100901.72
2023-01-26T07:36:41.969Z,100899.06
2023-01-26T07:39:08.903Z,100905.09
2023-01-26T07:41:35.896Z,100900.53
2023-01-26T07:44:02.591Z,100898.81
2023-01-26T07:46:29.320Z,100896.16
2023-01-26T07:48:56.767Z,100898.72
2023-01-26T07:51:23.855Z,100900.47
2023-01-26T07:53:50.444Z,100904.78
2023-01-26T07:56:20.534Z,100909.16
2023-01-26T07:58:52.072Z,100905.53
2023-01-26T08:01:18.864Z,100902.72
2023-01-26T08:03:45.872Z,100904.38
2023-01-26T08:06:14.910Z,100904.31
2023-01-26T08:08:43.158Z,100910.47
2023-01-26T08:11:11.441Z,100901.63
2023-01-26T08:13:38.588Z,100906.03
2023-01-26T08:16:10.886Z,100898.03
2023-01-26T08:18:38.700Z,100896.16
2023-01-26T08:21:05.565Z,100904.06
2023-01-26T08:23:32.512Z,100899.63
2023-01-26T08:26:03.699Z,100890.78
2023-01-26T08:28:30.393Z,100899.75
2023-01-26T08:30:57.559Z,100899.63
2023-01-26T08:33:24.464Z,100904.19
2023-01-26T08:35:51.081Z,100905.06
2023-01-26T08:38:17.737Z,100895.44
2023-01-26T08:40:44.306Z,100895.44
2023-01-26T08:43:10.876Z,100896.31
2023-01-26T08:45:37.532Z,100901.34
2023-01-26T08:48:04.965Z,100901.25
2023-01-26T08:50:31.516Z,100891.53
2023-01-26T08:52:58.102Z,100891.41
2023-01-26T08:55:24.793Z,100894.84
2023-01-26T08:57:55.255Z,100892.91
2023-01-26T09:00:23.208Z,100890.16
2023-01-26T09:02:49.939Z,100890.88
2023-01-26T09:05:16.643Z,100895.31
2023-01-26T09:07:44.759Z,100892.66
2023-01-26T09:10:11.872Z,100894.38
2023-01-26T09:12:40.960Z,100899.66
2023-01-26T09:15:08.499Z,100895.97
2023-01-26T09:17:35.671Z,100893.19
2023-01-26T09:20:02.246Z,100893.09
2023-01-26T09:22:28.984Z,100892.03
2023-01-26T09:24:55.543Z,100889.22
2023-01-26T09:27:22.208Z,100888.13
2023-01-26T09:29:49.094Z,100887.91
2023-01-26T09:32:15.792Z,100887.84
2023-01-26T09:34:45.464Z,100884.19
2023-01-26T09:37:12.523Z,100878.72
2023-01-26T09:39:39.142Z,100881.19
2023-01-26T09:42:24.392Z,100870.50
2023-01-26T09:45:07.513Z,100873.88
2023-01-26T09:47:51.361Z,100870.34
2023-01-26T09:50:27.364Z,100867.41
2023-01-26T09:53:12.539Z,100862.75
2023-01-26T09:55:41.815Z,100859.88
2023-01-26T09:58:17.908Z,100860.69
2023-01-26T10:00:50.616Z,100858.66
2023-01-26T10:03:37.672Z,100847.00
2023-01-26T10:06:29.130Z,100838.97
2023-01-26T10:09:00.779Z,100832.66
2023-01-26T10:11:38.833Z,100838.91
2023-01-26T10:14:15.052Z,100835.19
2023-01-26T10:16:46.808Z,100830.56
2023-01-26T10:19:21.990Z,100825.19
2023-01-26T10:21:51.688Z,100821.66
2023-01-26T10:24:23.536Z,100819.25
2023-01-26T10:26:53.008Z,100817.41
2023-01-26T10:29:20.669Z,100812.34
2023-01-26T10:31:49.675Z,100809.69
2023-01-26T10:34:22.747Z,100807.91
2023-01-26T10:36:49.326Z,100802.59
2023-01-26T10:39:17.941Z,100799.81
2023-01-26T10:41:59.732Z,100801.47
2023-01-26T10:44:36.042Z,100788.84
2023-01-26T10:47:22.852Z,100791.25
2023-01-26T10:49:49.480Z,100795.50
2023-01-26T10:52:25.512Z,100791.06
2023-01-26T10:55:11.536Z,100790.97
2023-01-26T10:57:39.965Z,100783.16
2023-01-26T11:00:23.467Z,100791.81
2023-01-26T11:02:53.377Z,100781.19
2023-01-26T11:05:25.404Z,100776.75
2023-01-26T11:08:07.911Z,100777.06
2023-01-26T11:10:37.822Z,100778.13
2023-01-26T11:13:12.493Z,100775.63
2023-01-26T11:15:40.632Z,100770.47
2023-01-26T11:18:45.523Z,100760.59
2023-01-26T11:21:36.730Z,100764.22
2023-01-26T11:24:25.467Z,100759.84
2023-01-26T11:27:33.483Z,100750.84
2023-01-26T11:30:06.391Z,100756.16
2023-01-26T11:32:59.264Z,100753.66
2023-01-26T11:35:32.139Z,100755.53
2023-01-26T11:38:21.843Z,100754.75
2023-01-26T11:41:03.178Z,100746.69
2023-01-26T11:43:39.007Z,100743.81
2023-01-26T11:46:33.200Z,100735.91
2023-01-26T11:49:08.683Z,100734.75
2023-01-26T11:51:51.982Z,100727.34
2023-01-26T11:54:51.974Z,100721.63
2023-01-26T11:57:52.931Z,100717.91
2023-01-26T12:00:30.600Z,100709.91
2023-01-26T12:03:04.729Z,100705.38
2023-01-26T12:05:49.010Z,100692.09
2023-01-26T12:08:38.595Z,100697.22
2023-01-26T12:11:23.345Z,100690.06
2023-01-26T12:14:04.245Z,100684.03
2023-01-26T12:16:40.016Z,100686.75
2023-01-26T12:19:16.343Z,100688.56
2023-01-26T12:21:45.597Z,100682.41
2023-01-26T12:24:48.427Z,100680.56
2023-01-26T12:27:18.444Z,100681.69
2023-01-26T12:30:04.804Z,100679.25
2023-01-26T12:32:31.402Z,100675.81
2023-01-26T12:34:58.562Z,100669.81
2023-01-26T12:38:05.661Z,100674.88
2023-01-26T12:40:52.196Z,100672.47
2023-01-26T12:43:18.713Z,100672.72
2023-01-26T12:45:50.088Z,100673.56
2023-01-26T12:48:37.995Z,100658.31
2023-01-26T12:51:11.366Z,100666.34
2023-01-26T12:53:52.304Z,100663.00
2023-01-26T12:56:33.144Z,100661.13
2023-01-26T12:59:06.963Z,100658.38
2023-01-26T13:01:43.328Z,100657.03
2023-01-26T13:04:14.808Z,100659.81
2023-01-26T13:06:41.765Z,100651.59
2023-01-26T13:09:24.843Z,100660.31
2023-01-26T13:12:00.811Z,100647.03
2023-01-26T13:14:42.417Z,100648.84
2023-01-26T13:17:14.748Z,100644.38
2023-01-26T13:19:44.166Z,100651.59
2023-01-26T13:22:19.716Z,100648.00
2023-01-26T13:24:48.840Z,100644.56
2023-01-26T13:27:40.752Z,100648.94
2023-01-26T13:30:25.749Z,100639.31
2023-01-26T13:33:25.045Z,100640.09
2023-01-26T13:35:54.585Z,100649.88
2023-01-26T13:38:31.476Z,100639.56
2023-01-26T13:40:59.077Z,100647.47
2023-01-26T13:43:38.093Z,100650.97
2023-01-26T13:46:14.540Z,100645.72
2023-01-26T13:48:48.311Z,100643.16
2023-01-26T13:51:21.853Z,100648.38
2023-01-26T13:53:50.001Z,100643.22
2023-01-26T13:56:30.572Z,100642.53
2023-01-26T13:59:09.571Z,100640.88
2023-01-26T14:01:43.696Z,100638.31
2023-01-26T14:04:15.154Z,100633.13
2023-01-26T14:06:45.452Z,100637.59
2023-01-26T14:09:15.339Z,100641.28
2023-01-26T14:11:42.961Z,100636.03
2023-01-26T14:14:25.967Z,100644.31
2023-01-26T14:16:52.635Z,100635.63
2023-01-26T14:19:22.325Z,100640.94
2023-01-26T14:21:57.669Z,100644.59
2023-01-26T14:24:34.679Z,100647.34
2023-01-26T14:27:02.921Z,100642.13
2023-01-26T14:29:33.952Z,100643.03
2023-01-26T14:32:01.187Z,100642.31
2023-01-26T14:34:30.027Z,100644.03
2023-01-26T14:37:15.188Z,100650.22
2023-01-26T14:39:47.992Z,100641.47
2023-01-26T14:42:17.380Z,100642.50
2023-01-26T14:44:44.089Z,100637.31
2023-01-26T14:47:18.372Z,100637.38
2023-01-26T14:49:56.988Z,100631.31
2023-01-26T14:52:34.859Z,100636.63
2023-01-26T14:55:07.407Z,100626.16
2023-01-26T14:57:34.506Z,100623.50
2023-01-26T15:00:02.448Z,100629.81
2023-01-26T15:02:38.704Z,100630.66
2023-01-26T15:05:17.332Z,100633.47
2023-01-26T15:07:55.037Z,100641.44
2023-01-26T15:10:32.751Z,100634.56
2023-01-26T15:13:23.884Z,100636.44
2023-01-26T15:16:14.520Z,100640.94
2023-01-26T15:18:41.103Z,100640.47
2023-01-26T15:21:21.671Z,100637.88
2023-01-26T15:23:53.323Z,100643.34
2023-01-26T15:26:31.854Z,100639.03
2023-01-26T15:29:00.917Z,100643.63
2023-01-26T15:31:36.660Z,100640.88
2023-01-26T15:34:04.317Z,100640.88
2023-01-26T15:36:47.227Z,100634.03
2023-01-26T15:39:17.316Z,100637.75
2023-01-26T15:41:58.288Z,100630.84
2023-01-26T15:44:25.011Z,100633.56
2023-01-26T15:46:51.611Z,100636.38
2023-01-26T15:49:20.077Z,100632.84
2023-01-26T15:51:46.678Z,100638.16
2023-01-26T15:54:13.271Z,100640.91
2023-01-26T15:56:39.826Z,100641.75
2023-01-26T15:59:06.823Z,100643.63
2023-01-26T16:01:33.522Z,100644.56
2023-01-26T16:04:00.111Z,100647.28
2023-01-26T16:06:32.523Z,100639.44
2023-01-26T16:08:59.092Z,100640.44
2023-01-26T16:11:33.615Z,100640.69
2023-01-26T16:14:04.298Z,100647.97
2023-01-26T16:16:32.282Z,100636.59
2023-01-26T16:18:59.300Z,100648.97
2023-01-26T16:21:30.263Z,100641.25
2023-01-26T16:23:57.251Z,100638.72
2023-01-26T16:26:23.926Z,100637.00
2023-01-26T16:28:50.540Z,100637.16
2023-01-26T16:31:26.772Z,100642.47
2023-01-26T16:33:53.505Z,100641.66
2023-01-26T16:36:20.939Z,100640.81
2023-01-26T16:38:48.211Z,100640.94
2023-01-26T16:41:16.638Z,100644.50
2023-01-26T16:43:43.487Z,100647.22
2023-01-26T16:46:10.620Z,100638.44
2023-01-26T16:48:39.489Z,100637.63
2023-01-26T16:51:26.483Z,100628.75
2023-01-26T16:53:54.003Z,100636.78
2023-01-26T16:56:21.292Z,100634.97
2023-01-26T16:58:48.027Z,100637.63
2023-01-26T17:01:24.209Z,100636.78
2023-01-26T17:03:51.900Z,100629.94
2023-01-26T17:06:19.839Z,100631.75
2023-01-26T17:08:46.601Z,100625.56
2023-01-26T17:11:27.607Z,100623.84
2023-01-26T17:13:56.233Z,100622.09
2023-01-26T17:16:29.736Z,100622.94
2023-01-26T17:18:56.931Z,100629.09
2023-01-26T17:21:23.629Z,100632.47
2023-01-26T17:23:52.125Z,100636.84
2023-01-26T17:26:20.487Z,100628.81
2023-01-26T17:28:51.666Z,100627.00
2023-01-26T17:31:20.486Z,100630.47
2023-01-26T17:33:49.295Z,100616.41
2023-01-26T17:36:17.678Z,100615.63
2023-01-26T17:38:44.926Z,100616.41
2023-01-26T17:41:11.703Z,100611.97
2023-01-26T17:43:38.310Z,100612.03
2023-01-26T17:46:06.844Z,100612.97
2023-01-26T17:48:36.293Z,100614.69
2023-01-26T17:51:06.723Z,100615.50
2023-01-26T17:53:36.158Z,100612.75
2023-01-26T17:56:02.751Z,100605.75
2023-01-26T17:58:29.312Z,100605.91
2023-01-26T18:00:55.958Z,100610.38
2023-01-26T18:03:26.366Z,100602.53
2023-01-26T18:05:57.384Z,100613.97
2023-01-26T18:08:25.005Z,100612.25
2023-01-26T18:10:58.583Z,100610.53
2023-01-26T18:13:25.229Z,100609.63
2023-01-26T18:15:54.773Z,100610.47
2023-01-26T18:18:26.001Z,100606.03
2023-01-26T18:20:52.697Z,100608.69
2023-01-26T18:23:20.431Z,100615.78
2023-01-26T18:25:47.213Z,100614.84
2023-01-26T18:28:14.877Z,100612.19
2023-01-26T18:30:42.146Z,100621.81
2023-01-26T18:33:08.956Z,100614.75
2023-01-26T18:35:36.105Z,100617.41
2023-01-26T18:38:03.379Z,100611.25
2023-01-26T18:40:30.775Z,100606.03
2023-01-26T18:42:57.754Z,100612.25
2023-01-26T18:45:24.434Z,100608.69
2023-01-26T18:47:51.183Z,100606.69
2023-01-26T18:50:18.298Z,100604.09
2023-01-26T18:52:44.957Z,100604.16
2023-01-26T18:55:11.898Z,100606.75
2023-01-26T18:57:38.895Z,100602.16
2023-01-26T19:00:07.985Z,100596.19
2023-01-26T19:02:38.814Z,100601.44
2023-01-26T19:05:08.920Z,100600.66
2023-01-26T19:07:35.633Z,100599.06
2023-01-26T19:10:04.891Z,100608.03
2023-01-26T19:12:31.732Z,100597.41
2023-01-26T19:14:58.415Z,100594.00
2023-01-26T19:17:25.116Z,100591.19
2023-01-26T19:19:51.747Z,100591.13
2023-01-26T19:22:18.505Z,100585.75
2023-01-26T19:24:45.348Z,100588.34
2023-01-26T19:27:11.978Z,100586.69
2023-01-26T19:29:38.532Z,100576.94
2023-01-26T19:32:05.353Z,100575.16
2023-01-26T19:34:33.761Z,100576.09
2023-01-26T19:37:00.493Z,100568.13
2023-01-26T19:39:27.038Z,100564.63
2023-01-26T19:41:53.846Z,100563.63
2023-01-26T19:44:20.380Z,100564.41
2023-01-26T19:46:50.582Z,100559.19
2023-01-26T19:49:17.529Z,100553.94
2023-01-26T19:51:44.150Z,100559.25
2023-01-26T19:54:10.741Z,100555.81
2023-01-26T19:56:38.012Z,100568.13
2023-01-26T19:59:07.567Z,100562.97
2023-01-26T20:01:34.205Z,100565.63
2023-01-26T20:04:04.209Z,100567.34
2023-01-26T20:06:33.742Z,100573.50
2023-01-26T20:09:00.918Z,100573.56
2023-01-26T20:11:29.799Z,100575.38
2023-01-26T20:13:57.635Z,100582.38
2023-01-26T20:16:27.951Z,100573.56
2023-01-26T20:18:58.720Z,100569.25
2023-01-26T20:21:26.230Z,100568.25
2023-01-26T20:23:55.385Z,100567.34
2023-01-26T20:26:23.998Z,100560.25
2023-01-26T20:28:52.109Z,100562.91
2023-01-26T20:31:21.631Z,100564.78
2023-01-26T20:33:49.954Z,100558.59
2023-01-26T20:36:19.328Z,100563.91
2023-01-26T20:38:47.674Z,100563.84
2023-01-26T20:41:17.241Z,100555.88
2023-01-26T20:43:58.678Z,100557.66
2023-01-26T20:46:28.012Z,100557.66
2023-01-26T20:48:56.168Z,100564.69
2023-01-26T20:51:26.354Z,100564.63
2023-01-26T20:53:52.926Z,100554.88
2023-01-26T20:56:22.169Z,100557.59
2023-01-26T20:58:52.376Z,100553.22
2023-01-26T21:01:19.759Z,100552.53
2023-01-26T21:03:46.469Z,100556.00
2023-01-26T21:06:15.720Z,100556.94
2023-01-26T21:08:42.581Z,100548.00
2023-01-26T21:11:13.800Z,100554.16
2023-01-26T21:13:43.501Z,100548.06
2023-01-26T21:16:13.362Z,100550.81
2023-01-26T21:18:40.563Z,100551.66
2023-01-26T21:21:10.271Z,100547.28
2023-01-26T21:23:36.844Z,100545.63
2023-01-26T21:26:04.764Z,100540.34
2023-01-26T21:28:31.844Z,100534.97
2023-01-26T21:31:09.685Z,100532.31
2023-01-26T21:33:39.769Z,100532.25
2023-01-26T21:36:07.951Z,100536.75
2023-01-26T21:38:37.087Z,100535.03
2023-01-26T21:41:29.503Z,100522.78
2023-01-26T21:44:20.300Z,100525.50
2023-01-26T21:46:48.891Z,100520.19
2023-01-26T21:49:16.196Z,100521.91
2023-01-26T21:52:01.268Z,100521.91
2023-01-26T21:54:29.846Z,100522.84
2023-01-26T21:56:57.170Z,100522.06
2023-01-26T21:59:23.782Z,100523.00
2023-01-26T22:01:55.503Z,100515.19
2023-01-26T22:04:26.808Z,100515.25
2023-01-26T22:06:54.140Z,100509.88
2023-01-26T22:09:21.437Z,100512.53
2023-01-26T22:11:50.527Z,100509.88
2023-01-26T22:14:20.576Z,100503.75
2023-01-26T22:16:47.277Z,100505.50
2023-01-26T22:19:14.136Z,100494.03
2023-01-26T22:21:41.072Z,100502.94
2023-01-26T22:24:11.586Z,100499.50
2023-01-26T22:26:38.639Z,100495.19
2023-01-26T22:29:05.799Z,100492.44
2023-01-26T22:31:32.987Z,100491.56
2023-01-26T22:34:00.935Z,100494.13
2023-01-26T22:36:28.468Z,100490.56
2023-01-26T22:38:55.711Z,100491.50
2023-01-26T22:41:27.340Z,100481.03
2023-01-26T22:43:56.488Z,100479.19
2023-01-26T22:46:25.280Z,100480.78
2023-01-26T22:48:52.220Z,100476.44
2023-01-26T22:51:20.523Z,100478.25
2023-01-26T22:53:49.294Z,100472.84
2023-01-26T22:56:34.793Z,100469.34
2023-01-26T22:59:01.785Z,100470.28
2023-01-26T23:01:31.229Z,100466.78
2023-01-26T23:03:58.852Z,100471.13
2023-01-26T23:06:26.463Z,100470.28
2023-01-26T23:08:53.343Z,100471.28
2023-01-26T23:11:23.139Z,100462.47
2023-01-26T23:13:51.132Z,100464.28
2023-01-26T23:16:18.053Z,100466.06
2023-01-26T23:18:45.031Z,100458.88
2023-01-26T23:21:12.123Z,100456.19
2023-01-26T23:23:39.260Z,100461.47
2023-01-26T23:26:06.042Z,100454.47
2023-01-26T23:28:36.511Z,100463.28
2023-01-26T23:31:03.641Z,100454.41
2023-01-26T23:33:32.105Z,100456.94
2023-01-26T23:35:58.685Z,100454.31
2023-01-26T23:38:27.749Z,100456.94
2023-01-26T23:40:54.723Z,100450.66
2023-01-26T23:43:22.077Z,100453.25
2023-01-26T23:45:49.993Z,100455.94
2023-01-26T23:48:17.191Z,100452.31
2023-01-26T23:50:43.801Z,100447.00
2023-01-26T23:53:12.538Z,100451.28
2023-01-26T23:55:43.504Z,100442.34
2023-01-26T23:58:11.413Z,100445.00
